Terminal Aerodrome Forecast
Issued by NWS Upton, NY

Home | Current Version | Previous Version | Text Only | Print | Product List | Glossary On
Versions: 1 2 3 4 5 6 7 8 9 10 11 12 13 14 15 16 17 18 19 20 21 22 23 24 25 26 27 28 29 30 31 32 33 34
200
FTUS41 KOKX 260520
TAFISP
TAF
KISP 260520Z 2606/2706 VRB05KT 2SM SHRA BR VCTS BKN004 OVC015CB
     FM260700 VRB05KT 2SM SHRA BR OVC004
     FM261100 30008KT 6SM -SHRA SCT007 BKN012
     FM261500 29012KT P6SM SCT015 BKN025
     FM261700 29014G24KT P6SM SCT025 BKN035
     FM270000 31010KT P6SM SCT050=

USA.gov is the U.S. government's official web portal to all federal, state and local government web resources and services.